createdAt,value
2015-09-28T00:00:14.735Z,79.8
2015-09-28T00:01:14.675Z,80.4
2015-09-28T00:02:14.850Z,80.8
2015-09-28T00:03:14.571Z,80.6
2015-09-28T00:04:14.511Z,80.6
2015-09-28T00:05:14.702Z,80.5
2015-09-28T00:06:14.408Z,80.1
2015-09-28T00:07:14.348Z,80.1
2015-09-28T00:08:14.304Z,79.9
2015-09-28T00:09:14.244Z,79.7
2015-09-28T00:10:14.184Z,80
2015-09-28T00:11:14.121Z,80
2015-09-28T00:12:14.077Z,80.1
2015-09-28T00:13:14.018Z,80.1
2015-09-28T00:14:13.957Z,80.4
2015-09-28T00:15:13.913Z,80
2015-09-28T00:16:13.870Z,79.7
2015-09-28T00:17:13.810Z,80.1
2015-09-28T00:18:13.765Z,79.7
2015-09-28T00:19:13.690Z,79.6
2015-09-28T00:20:13.646Z,80.2
2015-09-28T00:21:13.602Z,80.8
2015-09-28T00:22:13.543Z,80.6
2015-09-28T00:23:13.482Z,80.7
2015-09-28T00:24:13.423Z,80.9
2015-09-28T00:25:13.379Z,80.8
2015-09-28T00:26:13.318Z,80.8
2015-09-28T00:27:13.275Z,81.1
2015-09-28T00:28:13.215Z,80.4
2015-09-28T00:29:13.155Z,80.1
2015-09-28T00:30:13.111Z,79.8
2015-09-28T00:31:13.051Z,80
2015-09-28T00:32:12.992Z,80.3
2015-09-28T00:33:12.963Z,80.1
2015-09-28T00:34:12.887Z,79.6
2015-09-28T00:35:12.828Z,79.9
2015-09-28T00:36:12.784Z,80.1
2015-09-28T00:37:12.723Z,80.1
2015-09-28T00:38:12.680Z,80.2
2015-09-28T00:39:12.619Z,80.1
2015-09-28T00:40:12.560Z,80
2015-09-28T00:41:12.516Z,79.4
2015-09-28T00:42:12.455Z,79.9
2015-09-28T00:43:12.412Z,79.9
2015-09-28T00:44:12.368Z,79.9
2015-09-28T00:45:12.292Z,80.1
2015-09-28T00:46:12.264Z,80
2015-09-28T00:47:12.188Z,80.3
2015-09-28T00:48:12.144Z,80.4
2015-09-28T00:49:12.069Z,80.5
2015-09-28T00:50:12.041Z,80.3
2015-09-28T00:51:11.965Z,80.2
2015-09-28T00:52:11.921Z,80.8
2015-09-28T00:53:11.876Z,80.9
2015-09-28T00:54:11.817Z,80.8
2015-09-28T00:55:11.757Z,80.8
2015-09-28T00:56:11.697Z,80.4
2015-09-28T00:57:11.652Z,80.3
2015-09-28T00:58:11.593Z,80.1
2015-09-28T00:59:11.533Z,80
2015-09-28T01:00:11.489Z,80.3
2015-09-28T01:01:11.430Z,80.3
2015-09-28T01:02:11.371Z,80.5
2015-09-28T01:03:11.310Z,80.8
2015-09-28T01:04:11.266Z,80.7
2015-09-28T01:05:11.207Z,80.4
2015-09-28T01:06:11.147Z,80.4
2015-09-28T01:07:11.352Z,80.1
2015-09-28T01:08:11.058Z,80.4
2015-09-28T01:09:10.999Z,80.4
2015-09-28T01:10:10.954Z,80.4
2015-09-28T01:11:10.879Z,79.8
2015-09-28T01:12:10.818Z,80
2015-09-28T01:13:10.775Z,80.5
2015-09-28T01:14:10.716Z,80.9
2015-09-28T01:15:09.968Z,80.6
2015-09-28T01:16:10.612Z,80.5
2015-09-28T01:17:10.568Z,80.1
2015-09-28T01:18:10.507Z,79.6
2015-09-28T01:19:10.448Z,79.2
2015-09-28T01:20:10.403Z,79.2
2015-09-28T01:21:10.343Z,80.5
2015-09-28T01:22:10.281Z,80.9
2015-09-28T01:23:10.221Z,81.3
2015-09-28T01:24:10.178Z,81.2
2015-09-28T01:25:10.117Z,81
2015-09-28T01:26:10.073Z,80.6
2015-09-28T01:27:10.111Z,80.2
2015-09-28T01:28:09.816Z,80.4
2015-09-28T01:29:10.012Z,80.9
2015-09-28T01:30:09.937Z,81.1
2015-09-28T01:31:09.798Z,80.5
2015-09-28T01:32:09.740Z,80.2
2015-09-28T01:33:09.679Z,80.6
2015-09-28T01:34:09.620Z,80.8
2015-09-28T01:35:09.576Z,80.5
2015-09-28T01:36:09.531Z,80.1
2015-09-28T01:37:09.461Z,80.5
2015-09-28T01:38:09.431Z,80.5
2015-09-28T01:39:09.359Z,80.7
2015-09-28T01:40:09.300Z,80.6
2015-09-28T01:41:09.256Z,80.4
2015-09-28T01:42:09.430Z,80.1
2015-09-28T01:43:09.136Z,80.3
2015-09-28T01:44:09.092Z,80.3
2015-09-28T01:45:09.032Z,80.6
2015-09-28T01:46:08.972Z,80.9
2015-09-28T01:47:08.928Z,80.9
2015-09-28T01:48:08.868Z,80.7
2015-09-28T01:49:08.809Z,80.2
2015-09-28T01:50:08.764Z,80.5
2015-09-28T01:51:08.705Z,80.9
2015-09-28T01:52:07.926Z,80.4
2015-09-28T01:53:08.600Z,80.3
2015-09-28T01:54:08.542Z,80.7
2015-09-28T01:55:08.481Z,80.6
2015-09-28T01:56:08.452Z,80.5
2015-09-28T01:57:08.382Z,80.8
2015-09-28T01:58:08.322Z,80.6
2015-09-28T01:59:08.277Z,80.8
2015-09-28T02:00:08.218Z,80.4
2015-09-28T02:01:08.158Z,79.8
2015-09-28T02:02:08.098Z,79.3
2015-09-28T02:03:08.054Z,79.3
2015-09-28T02:04:07.995Z,79.5
2015-09-28T02:05:07.934Z,80.1
2015-09-28T02:06:07.890Z,81.1
2015-09-28T02:07:07.831Z,81.1
2015-09-28T02:08:07.770Z,81.1
2015-09-28T02:09:07.711Z,80.4
2015-09-28T02:10:07.667Z,80.1
2015-09-28T02:11:07.622Z,80.2
2015-09-28T02:12:07.547Z,80.1
2015-09-28T02:13:07.519Z,81
2015-09-28T02:14:07.677Z,81.3
2015-09-28T02:15:07.400Z,81.6
2015-09-28T02:16:07.340Z,80.8
2015-09-28T02:17:07.295Z,80.8
2015-09-28T02:18:07.220Z,80.6
2015-09-28T02:19:07.254Z,81.1
2015-09-28T02:20:07.131Z,81.2
2015-09-28T02:21:07.065Z,81.4
2015-09-28T02:22:06.996Z,80.9
2015-09-28T02:23:06.943Z,80.6
2015-09-28T02:24:06.875Z,80.4
2015-09-28T02:25:06.822Z,80.3
2015-09-28T02:26:06.760Z,80.7
2015-09-28T02:27:06.713Z,80.8
2015-09-28T02:28:06.650Z,80.8
2015-09-28T02:29:06.572Z,81.3
2015-09-28T02:30:06.760Z,81.7
2015-09-28T02:31:06.463Z,82.1
2015-09-28T02:32:06.417Z,82.2
2015-09-28T02:33:06.356Z,82.4
2015-09-28T02:34:06.310Z,82.2
2015-09-28T02:35:06.250Z,81.7
2015-09-28T02:36:06.188Z,81.2
2015-09-28T02:37:06.129Z,80.5
2015-09-28T02:38:06.068Z,80.2
2015-09-28T02:39:06.259Z,80.4
2015-09-28T02:40:05.980Z,80.8
2015-09-28T02:41:05.919Z,80.7
2015-09-28T02:42:05.860Z,79.8
2015-09-28T02:43:05.800Z,80
2015-09-28T02:44:05.755Z,80.4
2015-09-28T02:45:05.696Z,80.4
2015-09-28T02:46:05.636Z,80.5
2015-09-28T02:47:05.576Z,81.2
2015-09-28T02:48:05.548Z,81.5
2015-09-28T02:49:05.472Z,81.8
2015-09-28T02:50:05.413Z,81.6
2015-09-28T02:51:05.368Z,81
2015-09-28T02:52:05.309Z,80.6
2015-09-28T02:53:05.249Z,80.4
2015-09-28T02:54:05.048Z,80.4
2015-09-28T02:55:05.145Z,80.6
2015-09-28T02:56:05.132Z,80.8
2015-09-28T02:57:05.041Z,80.6
2015-09-28T02:58:04.981Z,80.8
2015-09-28T02:59:04.937Z,80.8
2015-09-28T03:00:04.877Z,81.3
2015-09-28T03:01:04.817Z,80.8
2015-09-28T03:02:04.758Z,80.4
2015-09-28T03:03:04.714Z,80.6
2015-09-28T03:04:04.654Z,80.8
2015-09-28T03:05:04.595Z,81
2015-09-28T03:06:04.534Z,81
2015-09-28T03:07:04.490Z,80.7
2015-09-28T03:08:04.431Z,80.2
2015-09-28T03:09:04.371Z,80.1
2015-09-28T03:10:03.592Z,80.1
2015-09-28T03:11:04.267Z,80
2015-09-28T03:12:04.207Z,80.3
2015-09-28T03:13:04.147Z,80.7
2015-09-28T03:14:04.103Z,81
2015-09-28T03:15:04.043Z,80.9
2015-09-28T03:16:03.999Z,81.3
2015-09-28T03:17:03.939Z,81
2015-09-28T03:18:03.880Z,81
2015-09-28T03:19:03.835Z,81.6
2015-09-28T03:20:03.776Z,81.6
2015-09-28T03:21:03.732Z,81.7
2015-09-28T03:22:03.906Z,82.4
2015-09-28T03:23:03.612Z,81
2015-09-28T03:24:03.553Z,81
2015-09-28T03:25:03.508Z,80.8
2015-09-28T03:26:03.448Z,81.1
2015-09-28T03:27:03.404Z,81.4
2015-09-28T03:28:03.750Z,81.5
2015-09-28T03:29:03.269Z,81.8
2015-09-28T03:30:03.225Z,82
2015-09-28T03:31:03.166Z,81.1
2015-09-28T03:32:03.121Z,81.2
2015-09-28T03:33:03.061Z,81.2
2015-09-28T03:34:03.033Z,81.8
2015-09-28T03:35:02.942Z,81.8
2015-09-28T03:36:02.883Z,81.6
2015-09-28T03:37:02.838Z,81.1
2015-09-28T03:38:02.794Z,81.5
2015-09-28T03:39:02.733Z,81.5
2015-09-28T03:40:02.674Z,80.8
2015-09-28T03:41:02.613Z,80.8
2015-09-28T03:42:02.570Z,80.8
2015-09-28T03:43:02.824Z,80.6
2015-09-28T03:44:02.464Z,80.8
2015-09-28T03:45:02.403Z,81.3
2015-09-28T03:46:02.579Z,81.4
2015-09-28T03:47:02.285Z,81.1
2015-09-28T03:48:02.427Z,80.7
2015-09-28T03:49:02.195Z,80.7
2015-09-28T03:50:02.121Z,80.5
2015-09-28T03:51:02.093Z,80.8
2015-09-28T03:52:02.016Z,81.5
2015-09-28T03:53:01.956Z,81
2015-09-28T03:54:02.163Z,80.8
2015-09-28T03:55:01.868Z,81.6
2015-09-28T03:56:01.793Z,81.6
2015-09-28T03:57:01.889Z,81.5
2015-09-28T03:58:01.689Z,81.1
2015-09-28T03:59:01.864Z,81
2015-09-28T04:00:02.335Z,80.6
2015-09-28T04:01:01.823Z,80.6
2015-09-28T04:02:01.465Z,80.6
2015-09-28T04:03:01.421Z,81
2015-09-28T04:04:01.362Z,81.3
2015-09-28T04:05:01.302Z,81.7
2015-09-28T04:06:01.258Z,81.6
2015-09-28T04:07:01.203Z,81
2015-09-28T04:08:01.143Z,80.7
2015-09-28T04:09:01.083Z,80.5
2015-09-28T04:10:01.023Z,80.6
2015-09-28T04:11:00.964Z,80.3
2015-09-28T04:12:00.920Z,80.3
2015-09-28T04:13:01.094Z,80.1
2015-09-28T04:14:00.800Z,80.3
2015-09-28T04:15:00.755Z,80.6
2015-09-28T04:16:00.697Z,80.4
2015-09-28T04:17:00.636Z,80.8
2015-09-28T04:18:00.592Z,80.6
2015-09-28T04:19:00.533Z,80.4
2015-09-28T04:20:00.488Z,80.3
2015-09-28T04:21:00.444Z,80.4
2015-09-28T04:22:00.384Z,80.9
2015-09-28T04:23:00.309Z,81.5
2015-09-28T04:24:00.249Z,82
2015-09-28T04:25:00.189Z,81.9
2015-09-28T04:26:00.146Z,81.9
2015-09-28T04:27:00.319Z,82
2015-09-28T04:28:00.041Z,81.5
2015-09-28T04:29:00.216Z,80.7
2015-09-28T04:29:59.922Z,80.3
2015-09-28T04:30:59.894Z,80.6
2015-09-28T04:31:59.833Z,81
2015-09-28T04:32:59.774Z,81.2
2015-09-28T04:33:59.713Z,81.1
2015-09-28T04:34:59.670Z,80.8
2015-09-28T04:35:59.610Z,80.7
2015-09-28T04:36:59.566Z,80.2
2015-09-28T04:37:59.491Z,80.2
2015-09-28T04:38:59.446Z,79.7
2015-09-28T04:39:59.387Z,80
2015-09-28T04:40:59.577Z,80.2
2015-09-28T04:41:59.282Z,80.8
2015-09-28T04:42:59.223Z,80.3
2015-09-28T04:43:59.178Z,80.2
2015-09-28T04:44:59.354Z,80.3
2015-09-28T04:45:59.059Z,80.2
2015-09-28T04:46:58.999Z,81.3
2015-09-28T04:47:58.955Z,82.2
2015-09-28T04:48:58.896Z,82.5
2015-09-28T04:49:58.836Z,82.6
2015-09-28T04:50:58.791Z,82.5
2015-09-28T04:51:58.966Z,81.9
2015-09-28T04:52:58.687Z,81.5
2015-09-28T04:53:58.627Z,81.1
2015-09-28T04:54:58.600Z,80.7
2015-09-28T04:55:58.527Z,81
2015-09-28T04:56:58.465Z,81.1
2015-09-28T04:57:58.405Z,80.8
2015-09-28T04:58:58.346Z,81.2
2015-09-28T04:59:58.301Z,81.8
2015-09-28T05:00:58.241Z,81.7
2015-09-28T05:01:58.198Z,81.6
2015-09-28T05:02:58.137Z,81.7
2015-09-28T05:03:58.078Z,81.6
2015-09-28T05:04:58.018Z,81.7
2015-09-28T05:05:57.990Z,80.8
2015-09-28T05:06:57.915Z,80.5
2015-09-28T05:07:57.854Z,80
2015-09-28T05:08:57.810Z,79.4
2015-09-28T05:09:57.751Z,79.5
2015-09-28T05:10:57.690Z,79.3
2015-09-28T05:11:57.646Z,78.9
2015-09-28T05:12:57.587Z,79.3
2015-09-28T05:13:57.542Z,79.5
2015-09-28T05:14:57.483Z,79.4
2015-09-28T05:15:57.423Z,79.5
2015-09-28T05:16:57.364Z,79.7
2015-09-28T05:17:57.553Z,80
2015-09-28T05:18:57.276Z,80.5
2015-09-28T05:19:57.200Z,80.3
2015-09-28T05:20:57.155Z,80.3
2015-09-28T05:21:57.096Z,80.2
2015-09-28T05:22:57.036Z,79.7
2015-09-28T05:23:56.992Z,79.5
2015-09-28T05:24:56.917Z,79.9
2015-09-28T05:25:56.139Z,80.3
2015-09-28T05:26:56.812Z,81
2015-09-28T05:27:56.769Z,81.1
2015-09-28T05:28:56.709Z,81.7
2015-09-28T05:29:56.665Z,81
2015-09-28T05:30:56.605Z,81.1
2015-09-28T05:31:56.561Z,81.2
2015-09-28T05:32:56.486Z,81.8
2015-09-28T05:33:56.441Z,82.6
2015-09-28T05:34:56.381Z,81.5
2015-09-28T05:35:56.322Z,80.8
2015-09-28T05:36:56.277Z,80.6
2015-09-28T05:37:56.217Z,80.6
2015-09-28T05:38:56.174Z,80.8
2015-09-28T05:39:56.098Z,81.3
2015-09-28T05:40:56.054Z,81.8
2015-09-28T05:41:55.994Z,81.5
2015-09-28T05:42:55.934Z,80.7
2015-09-28T05:43:55.890Z,80.6
2015-09-28T05:44:55.831Z,80.4
2015-09-28T05:45:55.771Z,80.2
2015-09-28T05:46:55.726Z,80.4
2015-09-28T05:47:55.666Z,80.8
2015-09-28T05:48:55.607Z,80.8
2015-09-28T05:49:55.563Z,80.7
2015-09-28T05:50:55.503Z,80.7
2015-09-28T05:51:55.443Z,80.5
2015-09-28T05:52:55.415Z,80.7
2015-09-28T05:53:55.340Z,80.7
2015-09-28T05:54:55.295Z,80.7
2015-09-28T05:55:55.235Z,80.5
2015-09-28T05:56:55.176Z,80.8
2015-09-28T05:57:55.116Z,80.9
2015-09-28T05:58:55.071Z,81
2015-09-28T05:59:54.996Z,80.8
2015-09-28T06:00:54.952Z,81.4
2015-09-28T06:01:54.890Z,80.6
2015-09-28T06:02:54.845Z,80.7
2015-09-28T06:03:55.020Z,80.7
2015-09-28T06:04:54.726Z,81.3
2015-09-28T06:05:54.681Z,81.6
2015-09-28T06:06:54.623Z,82.2
2015-09-28T06:07:54.562Z,81.7
2015-09-28T06:08:54.518Z,81.5
2015-09-28T06:09:54.473Z,81.3
2015-09-28T06:10:54.415Z,81.2
2015-09-28T06:11:54.354Z,81.2
2015-09-28T06:12:54.295Z,82.1
2015-09-28T06:13:54.250Z,82.2
2015-09-28T06:14:54.190Z,82.5
2015-09-28T06:15:54.147Z,82.4
2015-09-28T06:16:54.087Z,82.3
2015-09-28T06:17:54.027Z,81.9
2015-09-28T06:18:53.967Z,81.6
2015-09-28T06:19:53.923Z,81.9
2015-09-28T06:20:53.863Z,81.6
2015-09-28T06:21:53.819Z,81.3
2015-09-28T06:22:53.759Z,81.4
2015-09-28T06:23:53.934Z,80.9
2015-09-28T06:24:53.639Z,80.8
2015-09-28T06:25:53.596Z,81.4
2015-09-28T06:26:53.552Z,81.6
2015-09-28T06:27:53.726Z,81.7
2015-09-28T06:28:53.433Z,81.8
2015-09-28T06:29:53.372Z,81.7
2015-09-28T06:30:53.313Z,82
2015-09-28T06:31:53.269Z,82.3
2015-09-28T06:32:53.224Z,82.1
2015-09-28T06:33:53.149Z,82.6
2015-09-28T06:34:53.105Z,82.2
2015-09-28T06:35:53.280Z,82.4
2015-09-28T06:36:53.000Z,83.9
2015-09-28T06:37:52.941Z,83.6
2015-09-28T06:38:52.881Z,84.3
2015-09-28T06:39:52.837Z,83.8
2015-09-28T06:40:52.777Z,84.6
2015-09-28T06:41:52.733Z,84.2
2015-09-28T06:42:52.674Z,83.8
2015-09-28T06:43:52.613Z,83.5
2015-09-28T06:44:52.554Z,82.8
2015-09-28T06:45:52.509Z,82.4
2015-09-28T06:46:52.466Z,82.1
2015-09-28T06:47:52.421Z,82.3
2015-09-28T06:48:52.362Z,83.3
2015-09-28T06:49:52.302Z,83.8
2015-09-28T06:50:52.243Z,83.7
2015-09-28T06:51:52.198Z,84.8
2015-09-28T06:52:52.138Z,84.3
2015-09-28T06:53:52.093Z,84.4
2015-09-28T06:54:52.018Z,84.2
2015-09-28T06:55:52.209Z,84.7
2015-09-28T06:56:51.930Z,84.2
2015-09-28T06:57:51.870Z,83.1
2015-09-28T06:58:51.810Z,83.5
2015-09-28T06:59:51.781Z,83.5
2015-09-28T07:00:51.706Z,82.4
2015-09-28T07:01:51.663Z,83
2015-09-28T07:02:51.603Z,83.1
2015-09-28T07:03:51.559Z,83
2015-09-28T07:04:51.734Z,83.6
2015-09-28T07:05:51.454Z,83.5
2015-09-28T07:06:51.395Z,83
2015-09-28T07:07:51.351Z,83.4
2015-09-28T07:08:51.291Z,82.9
2015-09-28T07:09:51.247Z,83.4
2015-09-28T07:10:51.184Z,83.8
2015-09-28T07:11:51.140Z,83.5
2015-09-28T07:12:51.315Z,83.5
2015-09-28T07:13:51.036Z,82.5
2015-09-28T07:14:50.961Z,82.6
2015-09-28T07:15:50.917Z,83.1
2015-09-28T07:16:50.872Z,83.1
2015-09-28T07:17:50.813Z,82.4
2015-09-28T07:18:50.753Z,82.9
2015-09-28T07:19:50.709Z,82.5
2015-09-28T07:20:50.649Z,82.9
2015-09-28T07:21:50.605Z,83
2015-09-28T07:22:50.545Z,83
2015-09-28T07:23:50.486Z,82.8
2015-09-28T07:24:50.442Z,82.6
2015-09-28T07:25:50.381Z,82.6
2015-09-28T07:26:50.337Z,82.9
2015-09-28T07:27:50.277Z,82.6
2015-09-28T07:28:50.233Z,82.7
2015-09-28T07:29:50.174Z,82.3
2015-09-28T07:30:50.113Z,82
2015-09-28T07:31:50.085Z,82.4
2015-09-28T07:32:50.010Z,82.1
2015-09-28T07:33:49.966Z,82.1
2015-09-28T07:34:49.906Z,82.2
2015-09-28T07:35:49.862Z,82.4
2015-09-28T07:36:49.802Z,82.9
2015-09-28T07:37:49.758Z,82.7
2015-09-28T07:38:49.698Z,83.3
2015-09-28T07:39:49.638Z,83
2015-09-28T07:40:49.594Z,83.2
2015-09-28T07:41:49.535Z,82.8
2015-09-28T07:42:49.490Z,82.5
2015-09-28T07:43:49.430Z,82.5
2015-09-28T07:44:49.402Z,82.1
2015-09-28T07:45:49.326Z,82.7
2015-09-28T07:46:49.282Z,82.4
2015-09-28T07:47:49.223Z,82.4
2015-09-28T07:48:49.162Z,82.2
2015-09-28T07:49:49.118Z,82.3
2015-09-28T07:50:49.059Z,81.8
2015-09-28T07:51:49.014Z,81.3
2015-09-28T07:52:48.971Z,82.1
2015-09-28T07:53:48.911Z,81.8
2015-09-28T07:54:48.851Z,81.8
2015-09-28T07:55:48.798Z,81.8
2015-09-28T07:56:48.739Z,81.7
2015-09-28T07:57:48.711Z,81.9
2015-09-28T07:58:48.650Z,81.6
2015-09-28T07:59:48.606Z,81.1
2015-09-28T08:00:48.531Z,80.2
2015-09-28T08:01:48.487Z,80.1
2015-09-28T08:02:48.427Z,80.2
2015-09-28T08:03:48.384Z,80.8
2015-09-28T08:04:48.323Z,80.6
2015-09-28T08:05:48.279Z,80.9
2015-09-28T08:06:48.219Z,81
2015-09-28T08:07:48.175Z,80.8
2015-09-28T08:08:48.116Z,81.5
2015-09-28T08:09:48.086Z,81.1
2015-09-28T08:10:48.011Z,80.9
2015-09-28T08:11:47.983Z,80.8
2015-09-28T08:12:47.908Z,80
2015-09-28T08:13:47.863Z,80.1
2015-09-28T08:14:47.804Z,80.4
2015-09-28T08:15:47.760Z,80
2015-09-28T08:16:47.699Z,80
2015-09-28T08:17:47.656Z,79.5
2015-09-28T08:18:47.597Z,79.5
2015-09-28T08:19:47.536Z,80
2015-09-28T08:20:47.492Z,80.1
2015-09-28T08:21:47.432Z,79.3
2015-09-28T08:22:47.385Z,79.1
2015-09-28T08:23:47.326Z,79.3
2015-09-28T08:24:47.282Z,79.7
2015-09-28T08:25:47.221Z,79.5
2015-09-28T08:26:47.177Z,79.7
2015-09-28T08:27:47.118Z,79.2
2015-09-28T08:28:47.073Z,79.2
2015-09-28T08:29:47.014Z,78.7
2015-09-28T08:30:46.970Z,78.8
2015-09-28T08:31:46.910Z,78.3
2015-09-28T08:32:47.101Z,78.1
2015-09-28T08:33:46.806Z,78.1
2015-09-28T08:34:46.762Z,78
2015-09-28T08:35:46.717Z,77.3
2015-09-28T08:36:46.657Z,77.5
2015-09-28T08:37:46.614Z,77.5
2015-09-28T08:38:46.553Z,77.2
2015-09-28T08:39:46.509Z,77.1
2015-09-28T08:40:46.434Z,76.5
2015-09-28T08:41:46.406Z,76.8
2015-09-28T08:42:46.345Z,76.3
2015-09-28T08:43:46.286Z,75.3
2015-09-28T08:44:46.242Z,75.3
2015-09-28T08:45:46.181Z,76
2015-09-28T08:46:46.139Z,76.5
2015-09-28T08:47:46.078Z,75.5
2015-09-28T08:48:46.034Z,75.2
2015-09-28T08:49:45.975Z,75.4
2015-09-28T08:50:45.946Z,74.6
2015-09-28T08:51:46.105Z,74.5
2015-09-28T08:52:45.825Z,75
2015-09-28T08:53:45.767Z,75.7
2015-09-28T08:54:45.722Z,75.1
2015-09-28T08:55:45.679Z,74.4
2015-09-28T08:56:45.620Z,74
2015-09-28T08:57:44.840Z,74.1
2015-09-28T08:58:45.516Z,74.2
2015-09-28T08:59:45.471Z,73.9
2015-09-28T09:00:45.412Z,74.3
2015-09-28T09:01:45.368Z,73.9
2015-09-28T09:02:45.307Z,73.5
2015-09-28T09:03:45.248Z,73.7
2015-09-28T09:04:45.204Z,73.8
2015-09-28T09:05:45.160Z,73.8
2015-09-28T09:06:45.100Z,73.5
2015-09-28T09:07:45.040Z,73.3
2015-09-28T09:08:44.996Z,72.2
2015-09-28T09:09:44.936Z,73
2015-09-28T09:10:44.892Z,74.2
2015-09-28T09:11:44.832Z,72.9
2015-09-28T09:12:44.788Z,71.4
2015-09-28T09:13:44.744Z,71.4
2015-09-28T09:14:44.684Z,72.2
2015-09-28T09:15:44.656Z,71.5
2015-09-28T09:16:44.581Z,72.3
2015-09-28T09:17:44.536Z,71.9
2015-09-28T09:18:44.726Z,71.8
2015-09-28T09:19:44.448Z,74.2
2015-09-28T09:20:44.373Z,72.8
2015-09-28T09:21:44.329Z,72.1
2015-09-28T09:22:44.269Z,69.5
2015-09-28T09:23:44.225Z,66.3
2015-09-28T09:24:44.181Z,67.6
2015-09-28T09:25:44.120Z,69.1
2015-09-28T09:26:44.311Z,69.1
2015-09-28T09:27:44.017Z,69.9
2015-09-28T09:28:43.972Z,69.1
2015-09-28T09:29:43.913Z,68.7
2015-09-28T09:30:43.884Z,69.6
2015-09-28T09:31:43.825Z,69.4
2015-09-28T09:32:43.765Z,68.3
2015-09-28T09:33:43.719Z,69.3
2015-09-28T09:34:43.673Z,69.9
2015-09-28T09:35:43.613Z,69.7
2015-09-28T09:36:43.569Z,69.9
2015-09-28T09:37:43.510Z,67.5
2015-09-28T09:38:43.449Z,68.1
2015-09-28T09:39:43.406Z,68.9
2015-09-28T09:40:43.347Z,68.3
2015-09-28T09:41:43.301Z,69.1
2015-09-28T09:42:43.242Z,69.3
2015-09-28T09:43:43.199Z,69.9
2015-09-28T09:44:43.138Z,70
2015-09-28T09:45:43.126Z,70.8
2015-09-28T09:46:43.035Z,69.7
2015-09-28T09:47:42.991Z,68.1
2015-09-28T09:48:42.946Z,68.2
2015-09-28T09:49:42.902Z,66.8
2015-09-28T09:50:42.826Z,66.4
2015-09-28T09:51:42.813Z,66.8
2015-09-28T09:52:42.738Z,65.9
2015-09-28T09:53:42.678Z,67
2015-09-28T09:54:42.634Z,66.8
2015-09-28T09:55:42.591Z,67.2
2015-09-28T09:56:42.531Z,67.5
2015-09-28T09:57:42.486Z,68.5
2015-09-28T09:58:42.426Z,67.6
2015-09-28T09:59:42.382Z,68.5
2015-09-28T10:00:42.323Z,66.5
2015-09-28T10:01:42.279Z,65.4
2015-09-28T10:02:42.234Z,65.2
2015-09-28T10:03:42.175Z,66.1
2015-09-28T10:04:42.115Z,66
2015-09-28T10:05:42.070Z,65.3
2015-09-28T10:06:42.011Z,65.9
2015-09-28T10:07:41.967Z,66.7
2015-09-28T10:08:41.923Z,66
2015-09-28T10:09:41.863Z,65.5
2015-09-28T10:10:41.820Z,66.1
2015-09-28T10:11:41.759Z,66.4
2015-09-28T10:12:41.715Z,65
2015-09-28T10:13:41.656Z,64.7
2015-09-28T10:14:41.611Z,62.8
2015-09-28T10:15:41.786Z,62.8
2015-09-28T10:16:41.506Z,62.8
2015-09-28T10:17:41.447Z,62.4
2015-09-28T10:18:41.403Z,62.4
2015-09-28T10:19:41.343Z,62.6
2015-09-28T10:20:41.283Z,63.7
2015-09-28T10:21:41.239Z,63.1
2015-09-28T10:22:41.195Z,63.7
2015-09-28T10:23:41.151Z,64.5
2015-09-28T10:24:41.092Z,65
2015-09-28T10:25:41.047Z,65
2015-09-28T10:26:40.988Z,65
2015-09-28T10:27:40.944Z,64.6
2015-09-28T10:28:40.883Z,65
2015-09-28T10:29:40.824Z,65
2015-09-28T10:30:40.764Z,64.4
2015-09-28T10:31:40.736Z,65
2015-09-28T10:32:40.675Z,64.2
2015-09-28T10:33:40.632Z,63.1
2015-09-28T10:34:40.569Z,61.2
2015-09-28T10:35:40.540Z,61.3
2015-09-28T10:36:40.480Z,62
2015-09-28T10:37:40.405Z,61.4
2015-09-28T10:38:40.361Z,60.9
2015-09-28T10:39:40.317Z,60.6
2015-09-28T10:40:40.116Z,60.6
2015-09-28T10:41:40.213Z,60.6
2015-09-28T10:42:40.168Z,62
2015-09-28T10:43:40.110Z,60.5
2015-09-28T10:44:40.065Z,62
2015-09-28T10:45:40.005Z,62.6
2015-09-28T10:46:39.961Z,62.8
2015-09-28T10:47:39.901Z,62.4
2015-09-28T10:48:39.857Z,61.2
2015-09-28T10:49:39.798Z,60.3
2015-09-28T10:50:39.769Z,59.1
2015-09-28T10:51:39.959Z,59.6
2015-09-28T10:52:39.665Z,59.9
2015-09-28T10:53:39.605Z,60.5
2015-09-28T10:54:39.562Z,59.2
2015-09-28T10:55:38.751Z,59.5
2015-09-28T10:56:39.457Z,60.4
2015-09-28T10:57:39.413Z,60.2
2015-09-28T10:58:39.353Z,57.4
2015-09-28T10:59:39.309Z,59.3
2015-09-28T11:00:39.249Z,58.9
2015-09-28T11:01:39.221Z,58.7
2015-09-28T11:02:39.161Z,57.5
2015-09-28T11:03:39.117Z,56.8
2015-09-28T11:04:39.057Z,56.8
2015-09-28T11:05:38.997Z,56.5
2015-09-28T11:06:38.953Z,58.5
2015-09-28T11:07:38.909Z,58.3
2015-09-28T11:08:38.865Z,58.1
2015-09-28T11:09:38.805Z,59
2015-09-28T11:10:38.761Z,56.8
2015-09-28T11:11:38.701Z,57.2
2015-09-28T11:12:38.672Z,56.8
2015-09-28T11:13:38.597Z,57.6
2015-09-28T11:14:38.553Z,57.8
2015-09-28T11:15:38.509Z,58
2015-09-28T11:16:38.308Z,57.1
2015-09-28T11:17:38.405Z,57.4
2015-09-28T11:18:38.361Z,57.4
2015-09-28T11:19:38.317Z,57.3
2015-09-28T11:20:38.257Z,56.8
2015-09-28T11:21:38.213Z,55.4
2015-09-28T11:22:38.153Z,54.6
2015-09-28T11:23:38.108Z,54.5
2015-09-28T11:24:38.049Z,53
2015-09-28T11:25:37.989Z,53.5
2015-09-28T11:26:37.942Z,54.7
2015-09-28T11:27:37.882Z,55.6
2015-09-28T11:28:37.821Z,55.6
2015-09-28T11:29:37.743Z,57.1
2015-09-28T11:30:37.682Z,57.4
2015-09-28T11:31:37.622Z,57.1
2015-09-28T11:32:37.557Z,58
2015-09-28T11:33:37.507Z,56
2015-09-28T11:34:37.675Z,55.7
2015-09-28T11:35:37.405Z,56.5
2015-09-28T11:36:37.341Z,57.7
2015-09-28T11:37:37.294Z,54.8
2015-09-28T11:38:37.232Z,55.6
2015-09-28T11:39:37.186Z,55.8
2015-09-28T11:40:37.124Z,57.3
2015-09-28T11:41:37.094Z,57.1
2015-09-28T11:42:37.033Z,57.4
2015-09-28T11:43:36.971Z,58.2
2015-09-28T11:44:36.926Z,57.2
2015-09-28T11:45:36.880Z,57.8
2015-09-28T11:46:37.054Z,56.6
2015-09-28T11:47:36.776Z,56.6
2015-09-28T11:48:36.731Z,54
2015-09-28T11:49:36.670Z,55.2
2015-09-28T11:50:36.642Z,55.7
2015-09-28T11:51:36.582Z,56
2015-09-28T11:52:36.537Z,55.7
2015-09-28T11:53:36.477Z,57.6
2015-09-28T11:54:36.432Z,55.5
2015-09-28T11:55:36.373Z,55.4
2015-09-28T11:56:36.329Z,56
2015-09-28T11:57:36.285Z,56.7
2015-09-28T11:58:36.240Z,56.7
2015-09-28T11:59:36.181Z,56.3
2015-09-28T12:00:36.137Z,57.3
2015-09-28T12:01:36.077Z,57.7
2015-09-28T12:02:36.033Z,56.9
2015-09-28T12:03:35.989Z,55.6
2015-09-28T12:04:35.929Z,54.8
2015-09-28T12:05:35.884Z,55.5
2015-09-28T12:06:35.840Z,56.6
2015-09-28T12:07:35.796Z,56.7
2015-09-28T12:08:35.736Z,56.6
2015-09-28T12:09:35.693Z,55.9
2015-09-28T12:10:35.649Z,57.4
2015-09-28T12:11:35.604Z,57.5
2015-09-28T12:12:35.545Z,57.2
2015-09-28T12:13:35.500Z,58.1
2015-09-28T12:14:35.440Z,58
2015-09-28T12:15:35.397Z,58.5
2015-09-28T12:16:35.353Z,59.1
2015-09-28T12:17:35.308Z,58.9
2015-09-28T12:18:35.248Z,58.4
2015-09-28T12:19:35.204Z,59
2015-09-28T12:20:35.161Z,57.8
2015-09-28T12:21:35.116Z,57.4
2015-09-28T12:22:35.056Z,56.6
2015-09-28T12:23:35.012Z,56.4
2015-09-28T12:24:34.953Z,58.5
2015-09-28T12:25:34.908Z,58.8
2015-09-28T12:26:34.848Z,59.9
2015-09-28T12:27:34.805Z,57.6
2015-09-28T12:28:34.776Z,57
2015-09-28T12:29:34.716Z,55.9
2015-09-28T12:30:34.671Z,55.6
2015-09-28T12:31:34.602Z,55.2
2015-09-28T12:32:34.573Z,55.5
2015-09-28T12:33:34.513Z,54.9
2015-09-28T12:34:34.469Z,56.7
2015-09-28T12:35:34.410Z,54.9
2015-09-28T12:36:34.600Z,54.4
2015-09-28T12:37:34.321Z,54
2015-09-28T12:38:34.261Z,56
2015-09-28T12:39:34.216Z,56.5
2015-09-28T12:40:34.157Z,57.6
2015-09-28T12:41:34.113Z,58.5
2015-09-28T12:42:34.054Z,57.1
2015-09-28T12:43:34.009Z,58
2015-09-28T12:44:33.965Z,58.3
2015-09-28T12:45:33.921Z,58
2015-09-28T12:46:33.860Z,57.6
2015-09-28T12:47:33.817Z,57.5
2015-09-28T12:48:33.785Z,54.1
2015-09-28T12:49:33.710Z,55.7
2015-09-28T12:50:33.666Z,55.8
2015-09-28T12:51:33.622Z,55.9
2015-09-28T12:52:33.562Z,58.4
2015-09-28T12:53:33.534Z,56.6
2015-09-28T12:54:33.474Z,56.8
2015-09-28T12:55:33.414Z,56.7
2015-09-28T12:56:33.385Z,57.2
2015-09-28T12:57:32.576Z,57.8
2015-09-28T12:58:33.265Z,57.7
2015-09-28T12:59:33.237Z,57.9
2015-09-28T13:00:33.178Z,58.6
2015-09-28T13:01:33.149Z,58.6
2015-09-28T13:02:33.073Z,59.1
2015-09-28T13:03:33.029Z,58.4
2015-09-28T13:04:32.236Z,59
2015-09-28T13:05:32.941Z,59.1
2015-09-28T13:06:32.881Z,60
2015-09-28T13:07:32.837Z,60.1
2015-09-28T13:08:32.792Z,59.3
2015-09-28T13:09:32.749Z,57.1
2015-09-28T13:10:32.689Z,57.2
2015-09-28T13:11:32.645Z,57
2015-09-28T13:12:32.600Z,56.1
2015-09-28T13:13:32.542Z,56.1
2015-09-28T13:14:32.498Z,56.2
2015-09-28T13:15:32.437Z,55.8
2015-09-28T13:16:32.409Z,56.5
2015-09-28T13:17:32.350Z,56.1
2015-09-28T13:18:32.305Z,55.6
2015-09-28T13:19:32.245Z,55
2015-09-28T13:20:32.200Z,54.6
2015-09-28T13:21:32.157Z,57.3
2015-09-28T13:22:32.113Z,56
2015-09-28T13:23:32.053Z,55